createdAt,value
2018-09-13T00:00:30.426Z,23.32
2018-09-13T00:03:01.808Z,23.31
2018-09-13T00:05:33.313Z,23.32
2018-09-13T00:08:05.321Z,23.32
2018-09-13T00:10:37.308Z,23.31
2018-09-13T00:13:15.222Z,23.31
2018-09-13T00:15:46.777Z,23.30
2018-09-13T00:18:18.417Z,23.31
2018-09-13T00:20:49.867Z,23.31
2018-09-13T00:23:21.307Z,23.29
2018-09-13T00:25:52.751Z,23.30
2018-09-13T00:28:24.324Z,23.30
2018-09-13T00:30:55.760Z,23.29
2018-09-13T00:33:27.301Z,23.29
2018-09-13T00:35:58.802Z,23.27
2018-09-13T00:38:30.218Z,23.26
2018-09-13T00:44:01.596Z,23.27
2018-09-13T00:46:32.727Z,23.28
2018-09-13T00:49:03.878Z,23.28
2018-09-13T00:51:34.530Z,23.29
2018-09-13T00:54:05.633Z,23.30
2018-09-13T00:56:36.654Z,23.28
2018-09-13T00:59:07.622Z,23.28
2018-09-13T01:01:38.752Z,23.25
2018-09-13T01:04:09.724Z,23.22
2018-09-13T01:06:40.707Z,23.28
2018-09-13T01:09:11.925Z,23.27
2018-09-13T01:11:42.885Z,23.26
2018-09-13T01:16:55.338Z,23.26
2018-09-13T01:19:26.655Z,23.26
2018-09-13T01:21:57.708Z,23.27
2018-09-13T01:24:28.691Z,23.29
2018-09-13T01:26:59.691Z,23.27
2018-09-13T01:29:30.650Z,23.27
2018-09-13T01:32:01.704Z,23.27
2018-09-13T01:34:32.704Z,23.29
2018-09-13T01:37:03.687Z,23.27
2018-09-13T01:39:34.736Z,23.27
2018-09-13T01:42:05.825Z,23.26
2018-09-13T01:44:36.802Z,23.27
2018-09-13T01:47:08.395Z,23.23
2018-09-13T01:49:39.796Z,23.28
2018-09-13T01:52:11.021Z,23.28
2018-09-13T01:54:42.455Z,23.29
2018-09-13T01:57:14.011Z,23.30
2018-09-13T01:59:45.521Z,23.27
2018-09-13T02:02:17.413Z,23.26
2018-09-13T02:04:48.879Z,23.27
2018-09-13T02:07:19.638Z,23.27
2018-09-13T02:09:51.199Z,23.27
2018-09-13T02:12:22.720Z,23.26
2018-09-13T02:14:54.455Z,23.28
2018-09-13T02:17:26.207Z,23.27
2018-09-13T02:19:57.863Z,23.24
2018-09-13T02:22:29.396Z,23.28
2018-09-13T02:25:00.872Z,23.29
2018-09-13T02:27:31.564Z,23.28
2018-09-13T02:30:03.062Z,23.28
2018-09-13T02:32:34.757Z,23.31
2018-09-13T02:35:06.416Z,23.29
2018-09-13T02:37:37.898Z,23.26
2018-09-13T02:40:08.751Z,23.25
2018-09-13T02:42:40.305Z,23.26
2018-09-13T02:45:11.761Z,23.26
2018-09-13T02:47:43.427Z,23.23
2018-09-13T02:50:14.896Z,23.23
2018-09-13T02:52:45.594Z,23.25
2018-09-13T02:55:16.992Z,23.23
2018-09-13T02:57:51.575Z,23.23
2018-09-13T03:00:23.218Z,23.22
2018-09-13T03:02:54.678Z,23.23
2018-09-13T03:05:26.191Z,23.22
2018-09-13T03:07:57.727Z,23.21
2018-09-13T03:10:28.795Z,23.22
2018-09-13T03:12:59.886Z,23.24
2018-09-13T03:15:31.414Z,23.25
2018-09-13T03:18:02.803Z,23.27
2018-09-13T03:20:34.341Z,23.26
2018-09-13T03:23:05.865Z,23.27
2018-09-13T03:25:36.671Z,23.28
2018-09-13T03:28:09.695Z,23.28
2018-09-13T03:30:41.230Z,23.24
2018-09-13T03:33:13.637Z,23.23
2018-09-13T03:35:45.243Z,23.24
2018-09-13T03:38:16.801Z,23.25
2018-09-13T03:40:48.408Z,23.25
2018-09-13T03:43:19.796Z,23.22
2018-09-13T03:45:51.317Z,23.23
2018-09-13T03:48:22.774Z,23.24
2018-09-13T03:50:53.798Z,23.24
2018-09-13T03:53:25.422Z,23.22
2018-09-13T03:55:56.718Z,23.23
2018-09-13T03:58:28.253Z,23.23
2018-09-13T04:00:59.800Z,23.25
2018-09-13T04:03:31.390Z,23.21
2018-09-13T04:06:02.853Z,23.24
2018-09-13T04:08:34.401Z,23.23
2018-09-13T04:11:05.805Z,23.22
2018-09-13T04:13:37.686Z,23.18
2018-09-13T04:16:09.351Z,23.13
2018-09-13T04:18:40.757Z,23.10
2018-09-13T04:21:12.540Z,23.13
2018-09-13T04:23:44.008Z,23.08
2018-09-13T04:26:15.569Z,23.07
2018-09-13T04:28:46.988Z,23.09
2018-09-13T04:31:18.563Z,23.13
2018-09-13T04:33:50.687Z,23.13
2018-09-13T04:36:22.222Z,23.07
2018-09-13T04:38:53.673Z,23.08
2018-09-13T04:41:24.969Z,23.09
2018-09-13T04:43:56.515Z,23.08
2018-09-13T04:46:27.874Z,23.08
2018-09-13T04:48:58.614Z,23.08
2018-09-13T04:51:30.202Z,23.06
2018-09-13T04:54:01.762Z,23.05
2018-09-13T04:56:33.563Z,23.02
2018-09-13T04:59:05.200Z,23.05
2018-09-13T05:01:37.014Z,23.05
2018-09-13T05:04:08.670Z,23.06
2018-09-13T05:06:40.289Z,23.08
2018-09-13T05:09:14.452Z,23.10
2018-09-13T05:11:46.009Z,23.12
2018-09-13T05:14:17.625Z,23.11
2018-09-13T05:16:49.209Z,23.10
2018-09-13T05:19:20.743Z,23.10
2018-09-13T05:21:52.333Z,23.10
2018-09-13T05:24:23.845Z,23.11
2018-09-13T05:26:55.669Z,23.10
2018-09-13T05:29:27.227Z,23.03
2018-09-13T05:31:58.485Z,23.03
2018-09-13T05:34:29.663Z,23.03
2018-09-13T05:37:00.654Z,23.04
2018-09-13T05:39:31.682Z,23.03
2018-09-13T05:42:02.851Z,23.01
2018-09-13T05:44:33.546Z,23.00
2018-09-13T05:47:04.977Z,22.98
2018-09-13T05:49:36.639Z,22.93
2018-09-13T05:52:08.210Z,22.97
2018-09-13T05:54:39.778Z,23.00
2018-09-13T05:57:11.341Z,23.01
2018-09-13T05:59:42.795Z,23.01
2018-09-13T06:02:13.913Z,22.98
2018-09-13T06:04:44.575Z,22.99
2018-09-13T06:07:16.225Z,23.02
2018-09-13T06:09:47.885Z,23.04
2018-09-13T06:12:18.541Z,23.03
2018-09-13T06:14:49.994Z,23.06
2018-09-13T06:17:21.549Z,23.05
2018-09-13T06:19:53.073Z,23.04
2018-09-13T06:22:23.576Z,23.06
2018-09-13T06:24:54.978Z,23.08
2018-09-13T06:27:26.725Z,23.05
2018-09-13T06:29:58.382Z,23.00
2018-09-13T06:33:00.615Z,23.02
2018-09-13T06:35:31.728Z,22.99
2018-09-13T06:38:02.809Z,23.01
2018-09-13T06:40:33.629Z,22.98
2018-09-13T06:43:04.448Z,22.97
2018-09-13T06:45:35.629Z,22.97
2018-09-13T06:48:07.529Z,22.99
2018-09-13T06:50:38.690Z,22.98
2018-09-13T06:53:10.206Z,22.98
2018-09-13T06:55:48.671Z,22.97
2018-09-13T06:58:20.298Z,22.95
2018-09-13T07:00:51.805Z,22.99
2018-09-13T07:03:23.306Z,22.98
2018-09-13T07:05:54.869Z,23.00
2018-09-13T07:08:25.596Z,22.99
2018-09-13T07:10:57.247Z,23.00
2018-09-13T07:13:28.754Z,23.01
2018-09-13T07:16:00.193Z,23.04
2018-09-13T07:18:31.655Z,23.00
2018-09-13T07:21:03.200Z,22.99
2018-09-13T07:23:34.755Z,22.97
2018-09-13T07:26:06.297Z,22.99
2018-09-13T07:28:37.757Z,23.01
2018-09-13T07:31:09.299Z,23.00
2018-09-13T07:33:41.223Z,23.03
2018-09-13T07:36:12.751Z,23.03
2018-09-13T07:38:44.415Z,23.03
2018-09-13T07:41:15.632Z,23.05
2018-09-13T07:43:46.655Z,23.07
2018-09-13T07:46:17.698Z,23.06
2018-09-13T07:48:48.709Z,23.09
2018-09-13T07:51:20.300Z,23.03
2018-09-13T07:53:51.785Z,23.06
2018-09-13T07:56:23.269Z,23.06
2018-09-13T07:58:54.579Z,23.03
2018-09-13T08:01:25.902Z,23.07
2018-09-13T08:03:56.616Z,23.07
2018-09-13T08:06:28.216Z,23.06
2018-09-13T08:08:59.746Z,23.09
2018-09-13T08:11:31.367Z,23.12
2018-09-13T08:14:02.813Z,23.06
2018-09-13T08:16:34.221Z,23.06
2018-09-13T08:19:05.748Z,23.11
2018-09-13T08:21:37.413Z,23.11
2018-09-13T08:24:08.759Z,23.14
2018-09-13T08:26:40.205Z,23.14
2018-09-13T08:29:11.765Z,23.15
2018-09-13T08:31:43.549Z,23.12
2018-09-13T08:34:15.207Z,23.10
2018-09-13T08:36:46.764Z,23.14
2018-09-13T08:39:18.019Z,23.14
2018-09-13T08:41:49.245Z,23.11
2018-09-13T08:44:20.684Z,23.13
2018-09-13T08:46:52.200Z,23.15
2018-09-13T08:49:23.652Z,23.17
2018-09-13T08:51:55.270Z,23.14
2018-09-13T08:54:26.749Z,23.14
2018-09-13T08:56:58.199Z,23.14
2018-09-13T08:59:29.979Z,23.12
2018-09-13T09:02:01.622Z,23.08
2018-09-13T09:04:33.311Z,23.08
2018-09-13T09:07:04.789Z,23.13
2018-09-13T09:09:36.317Z,23.14
2018-09-13T09:12:07.823Z,23.18
2018-09-13T09:14:39.448Z,23.20
2018-09-13T09:17:10.734Z,23.23
2018-09-13T09:19:42.215Z,23.23
2018-09-13T09:22:13.700Z,23.25
2018-09-13T09:24:45.205Z,23.26
2018-09-13T09:27:16.595Z,23.27
2018-09-13T09:29:47.937Z,23.25
2018-09-13T09:32:18.649Z,23.22
2018-09-13T09:34:50.265Z,23.22
2018-09-13T09:37:21.849Z,23.24
2018-09-13T09:39:53.421Z,23.21
2018-09-13T09:42:24.841Z,23.25
2018-09-13T09:44:56.322Z,23.24
2018-09-13T09:47:34.639Z,23.21
2018-09-13T09:50:06.669Z,23.22
2018-09-13T09:52:38.197Z,23.22
2018-09-13T09:55:09.713Z,23.20
2018-09-13T09:57:42.364Z,23.11
2018-09-13T10:00:13.848Z,23.20
2018-09-13T10:02:45.473Z,23.22
2018-09-13T10:05:16.776Z,23.24
2018-09-13T10:07:48.432Z,23.23
2018-09-13T10:10:19.977Z,23.25
2018-09-13T10:12:51.593Z,23.25
2018-09-13T10:15:28.337Z,23.21
2018-09-13T10:18:04.869Z,23.19
2018-09-13T10:20:40.593Z,23.22
2018-09-13T10:23:17.311Z,23.19
2018-09-13T10:25:53.873Z,23.27
2018-09-13T10:28:29.616Z,23.25
2018-09-13T10:31:06.219Z,23.25
2018-09-13T10:33:42.764Z,23.28
2018-09-13T10:36:19.239Z,23.29
2018-09-13T10:38:56.048Z,23.30
2018-09-13T10:41:32.670Z,23.29
2018-09-13T10:44:09.224Z,23.34
2018-09-13T10:46:41.225Z,23.34
2018-09-13T10:49:17.705Z,23.37
2018-09-13T10:51:54.470Z,23.40
2018-09-13T10:54:31.350Z,23.39
2018-09-13T10:58:07.758Z,23.39
2018-09-13T11:00:39.428Z,23.39
2018-09-13T11:03:11.320Z,23.42
2018-09-13T11:05:42.821Z,23.39
2018-09-13T11:08:14.313Z,23.45
2018-09-13T11:10:45.892Z,23.46
2018-09-13T11:13:20.667Z,23.47
2018-09-13T11:15:52.221Z,23.46
2018-09-13T11:18:23.734Z,23.50
2018-09-13T11:20:55.313Z,23.48
2018-09-13T11:23:26.809Z,23.46
2018-09-13T11:25:58.659Z,23.47
2018-09-13T11:28:30.218Z,23.42
2018-09-13T11:31:04.744Z,23.44
2018-09-13T11:33:36.829Z,23.46
2018-09-13T11:36:08.468Z,23.48
2018-09-13T11:38:39.872Z,23.50
2018-09-13T11:41:10.568Z,23.53
2018-09-13T11:43:41.992Z,23.52
2018-09-13T11:46:13.683Z,23.50
2018-09-13T11:48:45.345Z,23.50
2018-09-13T11:51:16.874Z,23.48
2018-09-13T11:53:47.586Z,23.47
2018-09-13T11:56:19.237Z,23.47
2018-09-13T11:58:50.720Z,23.48
2018-09-13T12:01:22.280Z,23.48
2018-09-13T12:03:53.830Z,23.50
2018-09-13T12:06:25.638Z,23.49
2018-09-13T12:08:57.205Z,23.44
2018-09-13T12:11:28.715Z,23.47
2018-09-13T12:14:00.343Z,23.47
2018-09-13T12:16:31.849Z,23.47
2018-09-13T12:19:03.312Z,23.46
2018-09-13T12:21:35.756Z,23.43
2018-09-13T12:24:07.410Z,23.39
2018-09-13T12:26:38.974Z,23.48
2018-09-13T12:29:10.518Z,23.44
2018-09-13T12:31:42.228Z,23.46
2018-09-13T12:34:13.989Z,23.40
2018-09-13T12:36:45.576Z,23.39
2018-09-13T12:39:17.002Z,23.44
2018-09-13T12:41:48.749Z,23.46
2018-09-13T12:44:19.786Z,23.47
2018-09-13T12:46:50.785Z,23.49
2018-09-13T12:49:22.705Z,23.48
2018-09-13T12:51:54.329Z,23.45
2018-09-13T12:54:25.784Z,23.49
2018-09-13T12:56:57.444Z,23.40
2018-09-13T12:59:28.747Z,23.47
2018-09-13T13:02:00.318Z,23.43
2018-09-13T13:04:31.801Z,23.46
2018-09-13T13:07:03.421Z,23.46
2018-09-13T13:09:34.760Z,23.44
2018-09-13T13:12:06.436Z,23.42
2018-09-13T13:14:37.870Z,23.48
2018-09-13T13:17:09.435Z,23.51
2018-09-13T13:19:40.886Z,23.49
2018-09-13T13:22:11.579Z,23.45
2018-09-13T13:24:43.000Z,23.47
2018-09-13T13:27:14.790Z,23.48
2018-09-13T13:29:46.214Z,23.43
2018-09-13T13:32:17.753Z,23.44
2018-09-13T13:34:49.415Z,23.42
2018-09-13T13:37:20.841Z,23.33
2018-09-13T13:39:52.452Z,23.34
2018-09-13T13:42:23.810Z,23.33
2018-09-13T13:44:55.390Z,23.34
2018-09-13T13:47:27.246Z,23.35
2018-09-13T13:49:58.650Z,23.37
2018-09-13T13:52:30.214Z,23.36
2018-09-13T13:55:01.720Z,23.37
2018-09-13T13:57:33.225Z,23.35
2018-09-13T14:00:04.724Z,23.32
2018-09-13T14:02:36.976Z,23.34
2018-09-13T14:05:08.683Z,23.34
2018-09-13T14:07:40.529Z,23.33
2018-09-13T14:10:11.923Z,23.32
2018-09-13T14:12:43.445Z,23.30
2018-09-13T14:15:14.839Z,23.31
2018-09-13T14:17:46.334Z,23.27
2018-09-13T14:20:17.735Z,23.24
2018-09-13T14:22:49.323Z,23.27
2018-09-13T14:25:20.703Z,23.25
2018-09-13T14:27:52.315Z,23.25
2018-09-13T14:30:23.795Z,23.24
2018-09-13T14:32:55.320Z,23.23
2018-09-13T14:35:26.864Z,23.22
2018-09-13T14:37:58.472Z,23.18
2018-09-13T14:40:29.847Z,23.20
2018-09-13T14:43:01.293Z,23.21
2018-09-13T14:45:32.776Z,23.20
2018-09-13T14:48:04.896Z,23.13
2018-09-13T14:50:35.577Z,23.15
2018-09-13T14:53:07.553Z,23.20
2018-09-13T14:55:39.425Z,23.18
2018-09-13T14:58:10.771Z,23.18
2018-09-13T15:00:41.783Z,23.16
2018-09-13T15:03:12.833Z,23.14
2018-09-13T15:05:44.214Z,23.11
2018-09-13T15:08:15.745Z,23.14
2018-09-13T15:10:47.312Z,23.11
2018-09-13T15:13:18.767Z,23.08
2018-09-13T15:15:50.299Z,23.10
2018-09-13T15:18:21.819Z,23.15
2018-09-13T15:20:53.309Z,23.12
2018-09-13T15:23:25.017Z,23.15
2018-09-13T15:25:56.510Z,23.13
2018-09-13T15:28:27.994Z,23.11
2018-09-13T15:30:59.521Z,23.14
2018-09-13T15:33:31.021Z,23.15
2018-09-13T15:36:02.726Z,23.13
2018-09-13T15:38:34.698Z,23.15
2018-09-13T15:41:06.267Z,23.13
2018-09-13T15:43:37.764Z,23.15
2018-09-13T15:46:09.422Z,23.15
2018-09-13T15:48:40.977Z,23.11
2018-09-13T15:51:12.545Z,23.13
2018-09-13T15:53:44.007Z,23.14
2018-09-13T15:56:15.604Z,23.11
2018-09-13T15:58:47.309Z,23.13
2018-09-13T16:01:18.752Z,23.13
2018-09-13T16:03:50.307Z,23.11
2018-09-13T16:06:21.829Z,23.11
2018-09-13T16:08:53.478Z,23.10
2018-09-13T16:11:24.909Z,23.06
2018-09-13T16:13:55.578Z,23.07
2018-09-13T16:16:26.908Z,23.08
2018-09-13T16:18:57.551Z,23.07
2018-09-13T16:21:28.983Z,23.02
2018-09-13T16:24:00.685Z,23.04
2018-09-13T16:26:32.223Z,23.05
2018-09-13T16:29:03.697Z,23.07
2018-09-13T16:31:35.223Z,23.07
2018-09-13T16:34:06.769Z,23.10
2018-09-13T16:36:40.012Z,23.08
2018-09-13T16:39:27.220Z,23.06
2018-09-13T16:42:03.833Z,23.05
2018-09-13T16:44:40.383Z,23.05
2018-09-13T16:48:16.497Z,23.07
2018-09-13T16:50:47.908Z,22.94
2018-09-13T16:53:18.584Z,23.00
2018-09-13T16:55:50.199Z,23.04
2018-09-13T16:58:21.708Z,23.07
2018-09-13T17:00:53.212Z,23.04
2018-09-13T17:03:24.713Z,23.02
2018-09-13T17:05:56.313Z,23.04
2018-09-13T17:08:27.748Z,23.07
2018-09-13T17:10:59.335Z,22.99
2018-09-13T17:13:30.799Z,23.04
2018-09-13T17:16:02.222Z,23.06
2018-09-13T17:18:33.700Z,23.05
2018-09-13T17:21:05.391Z,23.05
2018-09-13T17:23:36.778Z,23.00
2018-09-13T17:26:08.328Z,23.01
2018-09-13T17:28:40.024Z,23.06
2018-09-13T17:31:11.716Z,23.01
2018-09-13T17:33:43.532Z,23.03
2018-09-13T17:36:14.821Z,23.04
2018-09-13T17:38:46.239Z,23.03
2018-09-13T17:41:17.806Z,23.03
2018-09-13T17:43:49.689Z,22.93
2018-09-13T17:46:21.215Z,23.00
2018-09-13T17:48:52.662Z,23.00
2018-09-13T17:51:24.216Z,22.99
2018-09-13T17:53:55.716Z,23.00
2018-09-13T17:56:27.304Z,23.02
2018-09-13T17:58:58.760Z,23.00
2018-09-13T18:01:30.325Z,23.02
2018-09-13T18:04:01.756Z,23.04
2018-09-13T18:06:33.318Z,22.96
2018-09-13T18:09:06.993Z,23.00
2018-09-13T18:11:38.675Z,23.01
2018-09-13T18:14:10.210Z,23.04
2018-09-13T18:16:41.720Z,23.03
2018-09-13T18:19:12.982Z,23.04
2018-09-13T18:21:44.527Z,23.01
2018-09-13T18:24:15.892Z,23.00
2018-09-13T18:26:47.042Z,22.96
2018-09-13T18:29:18.689Z,22.99
2018-09-13T18:31:50.204Z,22.96
2018-09-13T18:34:21.757Z,22.97
2018-09-13T18:36:53.303Z,22.92
2018-09-13T18:39:24.757Z,22.99
2018-09-13T18:41:55.850Z,22.97
2018-09-13T18:44:26.808Z,22.99
2018-09-13T18:46:58.209Z,22.98
2018-09-13T18:49:29.680Z,22.96
2018-09-13T18:52:01.320Z,22.98
2018-09-13T18:54:32.777Z,22.96
2018-09-13T18:57:04.570Z,22.91
2018-09-13T18:59:35.969Z,22.92
2018-09-13T19:02:06.571Z,22.92
2018-09-13T19:04:37.961Z,22.96
2018-09-13T19:07:09.539Z,22.96
2018-09-13T19:09:41.212Z,22.96
2018-09-13T19:12:12.772Z,22.94
2018-09-13T19:14:44.681Z,22.93
2018-09-13T19:17:16.355Z,22.92
2018-09-13T19:19:47.767Z,22.90
2018-09-13T19:22:19.356Z,22.91
2018-09-13T19:24:50.982Z,22.90
2018-09-13T19:27:22.486Z,22.89
2018-09-13T19:29:53.847Z,22.90
2018-09-13T19:32:25.383Z,22.88
2018-09-13T19:34:56.766Z,22.86
2018-09-13T19:37:28.361Z,22.87
2018-09-13T19:39:59.775Z,22.88
2018-09-13T19:42:30.840Z,22.93
2018-09-13T19:45:02.452Z,22.94
2018-09-13T19:47:33.861Z,22.93
2018-09-13T19:50:04.602Z,22.90
2018-09-13T19:52:36.215Z,22.88
2018-09-13T19:55:08.418Z,22.90
2018-09-13T19:57:39.883Z,22.87
2018-09-13T20:00:12.835Z,22.90
2018-09-13T20:02:43.557Z,22.91
2018-09-13T20:05:14.828Z,22.89
2018-09-13T20:07:46.394Z,22.91
2018-09-13T20:10:17.871Z,22.93
2018-09-13T20:12:49.683Z,22.92
2018-09-13T20:15:21.204Z,22.93
2018-09-13T20:17:52.744Z,22.93
2018-09-13T20:20:24.379Z,22.83
2018-09-13T20:22:55.834Z,22.89
2018-09-13T20:25:27.427Z,22.89
2018-09-13T20:27:58.857Z,22.87
2018-09-13T20:30:29.535Z,22.85
2018-09-13T20:33:01.006Z,22.86
2018-09-13T20:35:32.579Z,22.86
2018-09-13T20:38:04.227Z,22.88
2018-09-13T20:40:35.811Z,22.89
2018-09-13T20:43:07.823Z,22.89
2018-09-13T20:45:39.523Z,22.85
2018-09-13T20:48:11.308Z,22.88
2018-09-13T20:50:42.808Z,22.88
2018-09-13T20:53:14.224Z,22.86
2018-09-13T20:55:45.748Z,22.86
2018-09-13T20:58:17.634Z,22.84
2018-09-13T21:00:49.406Z,22.82
2018-09-13T21:03:20.660Z,22.83
2018-09-13T21:05:52.207Z,22.84
2018-09-13T21:08:23.897Z,22.83
2018-09-13T21:10:54.587Z,22.83
2018-09-13T21:13:26.207Z,22.85
2018-09-13T21:15:57.723Z,22.82
2018-09-13T21:18:28.868Z,22.83
2018-09-13T21:20:59.336Z,22.78
2018-09-13T21:23:30.864Z,22.84
2018-09-13T21:26:01.609Z,22.80
2018-09-13T21:28:33.498Z,22.78
2018-09-13T21:31:05.218Z,22.79
2018-09-13T21:33:36.768Z,22.80
2018-09-13T21:36:08.431Z,22.80
2018-09-13T21:38:39.873Z,22.82
2018-09-13T21:41:10.627Z,22.82
2018-09-13T21:43:42.218Z,22.84
2018-09-13T21:46:13.793Z,22.81
2018-09-13T21:48:45.307Z,22.78
2018-09-13T21:51:16.838Z,22.79
2018-09-13T21:53:48.391Z,22.81
2018-09-13T21:56:19.914Z,22.80
2018-09-13T21:58:51.730Z,22.78
2018-09-13T22:01:23.503Z,22.77
2018-09-13T22:03:54.889Z,22.75
2018-09-13T22:06:25.613Z,22.78
2018-09-13T22:08:57.590Z,22.76
2018-09-13T22:11:29.237Z,22.75
2018-09-13T22:14:00.774Z,22.78
2018-09-13T22:16:32.600Z,22.74
2018-09-13T22:19:04.206Z,22.82
2018-09-13T22:21:35.935Z,22.80
2018-09-13T22:24:07.601Z,22.76
2018-09-13T22:26:39.436Z,22.77
2018-09-13T22:29:10.950Z,22.76
2018-09-13T22:31:42.426Z,22.71
2018-09-13T22:34:14.211Z,22.75
2018-09-13T22:36:45.725Z,22.75
2018-09-13T22:39:18.308Z,22.73
2018-09-13T22:41:49.801Z,22.72
2018-09-13T22:44:21.143Z,22.75
2018-09-13T22:46:52.738Z,22.77
2018-09-13T22:49:24.460Z,22.74
2018-09-13T22:51:55.904Z,22.71
2018-09-13T22:54:26.609Z,22.72
2018-09-13T22:56:58.050Z,22.70
2018-09-13T22:59:29.756Z,22.72
2018-09-13T23:02:01.414Z,22.70
2018-09-13T23:04:32.909Z,22.70
2018-09-13T23:07:03.651Z,22.73
2018-09-13T23:09:35.408Z,22.71
2018-09-13T23:12:07.305Z,22.71
2018-09-13T23:14:39.205Z,22.75
2018-09-13T23:17:10.769Z,22.77
2018-09-13T23:19:42.301Z,22.76
2018-09-13T23:22:14.329Z,22.74
2018-09-13T23:24:45.851Z,22.71
2018-09-13T23:27:18.200Z,22.69
2018-09-13T23:29:49.751Z,22.76
2018-09-13T23:32:21.419Z,22.72
2018-09-13T23:34:52.982Z,22.70
2018-09-13T23:37:24.541Z,22.72
2018-09-13T23:39:56.146Z,22.74
2018-09-13T23:42:27.747Z,22.71
2018-09-13T23:44:59.378Z,22.69
2018-09-13T23:47:30.999Z,22.73
2018-09-13T23:50:02.647Z,22.73
2018-09-13T23:52:37.400Z,22.72
2018-09-13T23:55:08.997Z,22.72
2018-09-13T23:57:40.516Z,22.73
